sensor_id;sensor_type;location;lat;lon;timestamp;pressure;altitude;pressure_sealevel;temperature;humidity
48517;BME280;34310;51.904;4.256;2023-08-24T00:00:15;101881.81;;;26.05;51.27
48517;BME280;34310;51.904;4.256;2023-08-24T00:02:42;101879.06;;;26.02;51.21
48517;BME280;34310;51.904;4.256;2023-08-24T00:05:08;101880.00;;;26.02;51.31
48517;BME280;34310;51.904;4.256;2023-08-24T00:07:35;101864.81;;;25.97;51.16
48517;BME280;34310;51.904;4.256;2023-08-24T00:10:01;101879.06;;;26.02;51.36
48517;BME280;34310;51.904;4.256;2023-08-24T00:12:28;101871.09;;;26.00;51.25
48517;BME280;34310;51.904;4.256;2023-08-24T00:14:54;101872.84;;;26.00;51.26
48517;BME280;34310;51.904;4.256;2023-08-24T00:17:21;101873.66;;;25.97;51.21
48517;BME280;34310;51.904;4.256;2023-08-24T00:19:47;101860.31;;;25.92;51.45
48517;BME280;34310;51.904;4.256;2023-08-24T00:22:14;101877.19;;;25.98;51.19
48517;BME280;34310;51.904;4.256;2023-08-24T00:24:40;101871.00;;;25.97;51.12
48517;BME280;34310;51.904;4.256;2023-08-24T00:27:07;101863.03;;;25.96;51.50
48517;BME280;34310;51.904;4.256;2023-08-24T00:29:33;101866.47;;;25.91;51.25
48517;BME280;34310;51.904;4.256;2023-08-24T00:32:00;101874.47;;;25.94;51.35
48517;BME280;34310;51.904;4.256;2023-08-24T00:34:26;101878.84;;;25.92;51.25
48517;BME280;34310;51.904;4.256;2023-08-24T00:36:53;101874.44;;;25.93;51.41
48517;BME280;34310;51.904;4.256;2023-08-24T00:39:19;101867.38;;;25.92;51.38
48517;BME280;34310;51.904;4.256;2023-08-24T00:41:45;101861.03;;;25.85;51.71
48517;BME280;34310;51.904;4.256;2023-08-24T00:44:12;101878.81;;;25.91;51.54
48517;BME280;34310;51.904;4.256;2023-08-24T00:46:39;101883.16;;;25.89;51.28
48517;BME280;34310;51.904;4.256;2023-08-24T00:49:05;101879.59;;;25.87;51.54
48517;BME280;34310;51.904;4.256;2023-08-24T00:51:32;101890.22;;;25.88;51.63
48517;BME280;34310;51.904;4.256;2023-08-24T00:53:58;101888.31;;;25.83;51.49
48517;BME280;34310;51.904;4.256;2023-08-24T00:56:25;101890.19;;;25.87;51.50
48517;BME280;34310;51.904;4.256;2023-08-24T00:58:53;101867.97;;;25.80;51.50
48517;BME280;34310;51.904;4.256;2023-08-24T01:01:20;101861.94;;;25.86;51.53
48517;BME280;34310;51.904;4.256;2023-08-24T01:03:46;101853.09;;;25.85;51.49
48517;BME280;34310;51.904;4.256;2023-08-24T01:06:13;101846.03;;;25.84;51.47
48517;BME280;34310;51.904;4.256;2023-08-24T01:08:39;101846.91;;;25.85;51.68
48517;BME280;34310;51.904;4.256;2023-08-24T01:11:32;101848.50;;;25.77;51.53
48517;BME280;34310;51.904;4.256;2023-08-24T01:14:15;101856.56;;;25.83;51.49
48517;BME280;34310;51.904;4.256;2023-08-24T01:16:47;101860.06;;;25.82;51.64
48517;BME280;34310;51.904;4.256;2023-08-24T01:19:42;101848.56;;;25.80;51.42
48517;BME280;34310;51.904;4.256;2023-08-24T01:25:00;101849.50;;;25.82;51.67
48517;BME280;34310;51.904;4.256;2023-08-24T01:27:28;101844.97;;;25.78;51.75
48517;BME280;34310;51.904;4.256;2023-08-24T01:29:56;101857.31;;;25.77;51.74
48517;BME280;34310;51.904;4.256;2023-08-24T01:32:22;101847.34;;;25.67;51.89
48517;BME280;34310;51.904;4.256;2023-08-24T01:34:49;101855.53;;;25.76;51.77
48517;BME280;34310;51.904;4.256;2023-08-24T01:37:15;101827.78;;;25.62;51.79
48517;BME280;34310;51.904;4.256;2023-08-24T01:39:50;101837.72;;;25.71;51.80
48517;BME280;34310;51.904;4.256;2023-08-24T01:42:21;101826.22;;;25.69;51.93
48517;BME280;34310;51.904;4.256;2023-08-24T01:44:54;101826.19;;;25.67;51.87
48517;BME280;34310;51.904;4.256;2023-08-24T01:47:23;101828.97;;;25.73;51.79
48517;BME280;34310;51.904;4.256;2023-08-24T01:49:51;101811.31;;;25.72;51.66
48517;BME280;34310;51.904;4.256;2023-08-24T01:52:17;101806.81;;;25.68;51.88
48517;BME280;34310;51.904;4.256;2023-08-24T01:54:45;101807.75;;;25.70;51.64
48517;BME280;34310;51.904;4.256;2023-08-24T01:57:11;101790.13;;;25.71;52.05
48517;BME280;34310;51.904;4.256;2023-08-24T01:59:38;101773.31;;;25.69;52.09
48517;BME280;34310;51.904;4.256;2023-08-24T02:02:04;101774.22;;;25.69;51.81
48517;BME280;34310;51.904;4.256;2023-08-24T02:04:31;101769.81;;;25.70;52.00
48517;BME280;34310;51.904;4.256;2023-08-24T02:06:57;101766.25;;;25.68;51.99
48517;BME280;34310;51.904;4.256;2023-08-24T02:09:24;101746.69;;;25.62;52.00
48517;BME280;34310;51.904;4.256;2023-08-24T02:11:50;101742.38;;;25.66;52.01
48517;BME280;34310;51.904;4.256;2023-08-24T02:14:17;101757.34;;;25.66;52.04
48517;BME280;34310;51.904;4.256;2023-08-24T02:16:43;101745.69;;;25.57;51.83
48517;BME280;34310;51.904;4.256;2023-08-24T02:19:10;101756.44;;;25.65;52.13
48517;BME280;34310;51.904;4.256;2023-08-24T02:21:37;101755.56;;;25.64;52.16
48517;BME280;34310;51.904;4.256;2023-08-24T02:24:05;101754.66;;;25.64;52.13
48517;BME280;34310;51.904;4.256;2023-08-24T02:26:31;101740.44;;;25.59;52.15
48517;BME280;34310;51.904;4.256;2023-08-24T02:28:58;101739.63;;;25.61;52.04
48517;BME280;34310;51.904;4.256;2023-08-24T02:31:25;101740.50;;;25.62;51.93
48517;BME280;34310;51.904;4.256;2023-08-24T02:33:52;101742.22;;;25.60;52.21
48517;BME280;34310;51.904;4.256;2023-08-24T02:36:18;101750.16;;;25.60;52.06
48517;BME280;34310;51.904;4.256;2023-08-24T02:38:44;101740.38;;;25.56;51.97
48517;BME280;34310;51.904;4.256;2023-08-24T02:41:11;101748.41;;;25.60;52.23
48517;BME280;34310;51.904;4.256;2023-08-24T02:43:37;101744.84;;;25.58;52.12
48517;BME280;34310;51.904;4.256;2023-08-24T02:46:07;101751.91;;;25.59;52.06
48517;BME280;34310;51.904;4.256;2023-08-24T02:48:34;101752.78;;;25.58;52.19
48517;BME280;34310;51.904;4.256;2023-08-24T02:51:02;101742.19;;;25.58;52.03
48517;BME280;34310;51.904;4.256;2023-08-24T02:53:29;101731.59;;;25.57;52.18
48517;BME280;34310;51.904;4.256;2023-08-24T02:55:57;101715.56;;;25.51;52.12
48517;BME280;34310;51.904;4.256;2023-08-24T02:58:23;101714.78;;;25.55;52.09
48517;BME280;34310;51.904;4.256;2023-08-24T03:00:50;101709.44;;;25.52;52.13
48517;BME280;34310;51.904;4.256;2023-08-24T03:03:16;101727.16;;;25.56;52.25
48517;BME280;34310;51.904;4.256;2023-08-24T03:06:00;101719.16;;;25.53;52.06
48517;BME280;34310;51.904;4.256;2023-08-24T03:08:27;101712.06;;;25.52;52.19
48517;BME280;34310;51.904;4.256;2023-08-24T03:10:54;101706.81;;;25.53;52.11
48517;BME280;34310;51.904;4.256;2023-08-24T03:13:21;101705.91;;;25.51;52.22
48517;BME280;34310;51.904;4.256;2023-08-24T03:15:47;101699.72;;;25.51;52.39
48517;BME280;34310;51.904;4.256;2023-08-24T03:18:16;101701.47;;;25.50;52.22
48517;BME280;34310;51.904;4.256;2023-08-24T03:20:44;101694.34;;;25.48;52.24
48517;BME280;34310;51.904;4.256;2023-08-24T03:23:11;101689.09;;;25.49;52.23
48517;BME280;34310;51.904;4.256;2023-08-24T03:25:39;101696.09;;;25.47;52.27
48517;BME280;34310;51.904;4.256;2023-08-24T03:28:07;101693.44;;;25.46;52.17
48517;BME280;34310;51.904;4.256;2023-08-24T03:30:39;101693.47;;;25.47;52.56
48517;BME280;34310;51.904;4.256;2023-08-24T03:33:06;101700.50;;;25.47;52.31
48517;BME280;34310;51.904;4.256;2023-08-24T03:35:33;101710.19;;;25.46;52.30
48517;BME280;34310;51.904;4.256;2023-08-24T03:38:00;101713.63;;;25.44;52.37
48517;BME280;34310;51.904;4.256;2023-08-24T03:40:26;101700.25;;;25.38;52.36
48517;BME280;34310;51.904;4.256;2023-08-24T03:42:53;101703.88;;;25.41;52.53
48517;BME280;34310;51.904;4.256;2023-08-24T03:45:20;101706.59;;;25.44;52.54
48517;BME280;34310;51.904;4.256;2023-08-24T03:47:47;101685.13;;;25.30;52.52
48517;BME280;34310;51.904;4.256;2023-08-24T03:50:14;101702.09;;;25.40;52.39
48517;BME280;34310;51.904;4.256;2023-08-24T03:52:41;101686.09;;;25.34;52.61
48517;BME280;34310;51.904;4.256;2023-08-24T03:55:08;101698.53;;;25.40;52.46
48517;BME280;34310;51.904;4.256;2023-08-24T03:57:35;101688.72;;;25.34;52.70
48517;BME280;34310;51.904;4.256;2023-08-24T04:00:02;101701.19;;;25.40;52.44
48517;BME280;34310;51.904;4.256;2023-08-24T04:02:28;101703.84;;;25.40;52.63
48517;BME280;34310;51.904;4.256;2023-08-24T04:04:57;101707.34;;;25.39;52.55
48517;BME280;34310;51.904;4.256;2023-08-24T04:07:24;101709.91;;;25.36;52.41
48517;BME280;34310;51.904;4.256;2023-08-24T04:09:51;101708.19;;;25.38;52.69
48517;BME280;34310;51.904;4.256;2023-08-24T04:12:17;101693.91;;;25.29;52.58
48517;BME280;34310;51.904;4.256;2023-08-24T04:14:44;101693.94;;;25.31;52.64
48517;BME280;34310;51.904;4.256;2023-08-24T04:17:10;101706.41;;;25.37;52.53
48517;BME280;34310;51.904;4.256;2023-08-24T04:19:40;101704.63;;;25.36;52.74
48517;BME280;34310;51.904;4.256;2023-08-24T04:22:06;101700.19;;;25.35;52.64
48517;BME280;34310;51.904;4.256;2023-08-24T04:24:33;101699.28;;;25.34;52.53
48517;BME280;34310;51.904;4.256;2023-08-24T04:26:59;101695.69;;;25.30;52.69
48517;BME280;34310;51.904;4.256;2023-08-24T04:29:26;101685.97;;;25.29;52.69
48517;BME280;34310;51.904;4.256;2023-08-24T04:31:52;101690.44;;;25.32;52.66
48517;BME280;34310;51.904;4.256;2023-08-24T04:34:19;101686.00;;;25.31;52.71
48517;BME280;34310;51.904;4.256;2023-08-24T04:36:45;101679.84;;;25.30;52.55
48517;BME280;34310;51.904;4.256;2023-08-24T04:39:12;101673.66;;;25.30;52.71
48517;BME280;34310;51.904;4.256;2023-08-24T04:41:38;101666.63;;;25.30;52.71
48517;BME280;34310;51.904;4.256;2023-08-24T04:44:04;101647.84;;;25.18;52.75
48517;BME280;34310;51.904;4.256;2023-08-24T04:46:31;101663.94;;;25.29;52.71
48517;BME280;34310;51.904;4.256;2023-08-24T04:48:57;101657.75;;;25.28;52.43
48517;BME280;34310;51.904;4.256;2023-08-24T04:51:24;101650.72;;;25.29;52.93
48517;BME280;34310;51.904;4.256;2023-08-24T04:53:51;101644.41;;;25.22;52.88
48517;BME280;34310;51.904;4.256;2023-08-24T04:56:17;101644.50;;;25.27;52.83
48517;BME280;34310;51.904;4.256;2023-08-24T04:58:55;101648.03;;;25.27;52.77
48517;BME280;34310;51.904;4.256;2023-08-24T05:01:21;101640.97;;;25.26;52.72
48517;BME280;34310;51.904;4.256;2023-08-24T05:03:48;101632.00;;;25.20;52.85
48517;BME280;34310;51.904;4.256;2023-08-24T05:06:14;101627.72;;;25.25;52.75
48517;BME280;34310;51.904;4.256;2023-08-24T05:08:41;101617.91;;;25.19;53.00
48517;BME280;34310;51.904;4.256;2023-08-24T05:11:16;101620.63;;;25.22;52.99
48517;BME280;34310;51.904;4.256;2023-08-24T05:13:43;101617.97;;;25.22;52.73
48517;BME280;34310;51.904;4.256;2023-08-24T05:16:10;101617.06;;;25.22;52.82
48517;BME280;34310;51.904;4.256;2023-08-24T05:18:37;101596.69;;;25.16;53.05
48517;BME280;34310;51.904;4.256;2023-08-24T05:21:04;101608.25;;;25.21;52.98
48517;BME280;34310;51.904;4.256;2023-08-24T05:23:32;101610.00;;;25.21;53.02
48517;BME280;34310;51.904;4.256;2023-08-24T05:25:59;101612.63;;;25.19;52.97
48517;BME280;34310;51.904;4.256;2023-08-24T05:28:28;101612.66;;;25.21;53.16
48517;BME280;34310;51.904;4.256;2023-08-24T05:30:55;101620.53;;;25.19;52.98
48517;BME280;34310;51.904;4.256;2023-08-24T05:33:23;101612.63;;;25.19;53.04
48517;BME280;34310;51.904;4.256;2023-08-24T05:35:51;101615.25;;;25.19;52.98
48517;BME280;34310;51.904;4.256;2023-08-24T05:38:17;101602.91;;;25.18;53.13
48517;BME280;34310;51.904;4.256;2023-08-24T05:40:47;101605.50;;;25.17;53.16
48517;BME280;34310;51.904;4.256;2023-08-24T05:43:14;101610.84;;;25.18;53.25
48517;BME280;34310;51.904;4.256;2023-08-24T05:45:40;101601.09;;;25.16;52.97
48517;BME280;34310;51.904;4.256;2023-08-24T05:48:07;101596.69;;;25.16;53.29
48517;BME280;34310;51.904;4.256;2023-08-24T05:50:33;101583.28;;;25.09;53.17
48517;BME280;34310;51.904;4.256;2023-08-24T05:53:00;101598.44;;;25.16;53.09
48517;BME280;34310;51.904;4.256;2023-08-24T05:55:26;101589.56;;;25.14;53.26
48517;BME280;34310;51.904;4.256;2023-08-24T05:57:53;101576.28;;;25.11;53.06
48517;BME280;34310;51.904;4.256;2023-08-24T06:00:19;101557.53;;;25.00;53.23
48517;BME280;34310;51.904;4.256;2023-08-24T06:02:46;101571.91;;;25.13;52.93
48517;BME280;34310;51.904;4.256;2023-08-24T06:05:13;101569.28;;;25.13;53.14
48517;BME280;34310;51.904;4.256;2023-08-24T06:07:39;101577.16;;;25.11;53.16
48517;BME280;34310;51.904;4.256;2023-08-24T06:10:06;101563.94;;;25.11;53.23
48517;BME280;34310;51.904;4.256;2023-08-24T06:12:33;101563.94;;;25.11;53.29
48517;BME280;34310;51.904;4.256;2023-08-24T06:14:59;101555.97;;;25.08;53.53
48517;BME280;34310;51.904;4.256;2023-08-24T06:17:26;101546.19;;;25.04;53.05
48517;BME280;34310;51.904;4.256;2023-08-24T06:19:52;101549.84;;;25.11;53.42
48517;BME280;34310;51.904;4.256;2023-08-24T06:22:19;101533.94;;;25.08;53.22
48517;BME280;34310;51.904;4.256;2023-08-24T06:24:45;101537.50;;;25.10;53.44
48517;BME280;34310;51.904;4.256;2023-08-24T06:27:11;101533.97;;;25.09;53.37
48517;BME280;34310;51.904;4.256;2023-08-24T06:29:42;101539.22;;;25.08;53.32
48517;BME280;34310;51.904;4.256;2023-08-24T06:32:09;101553.31;;;25.08;53.17
48517;BME280;34310;51.904;4.256;2023-08-24T06:34:35;101562.13;;;25.09;53.19
48517;BME280;34310;51.904;4.256;2023-08-24T06:37:02;101577.09;;;25.08;53.44
48517;BME280;34310;51.904;4.256;2023-08-24T06:39:29;101564.75;;;25.07;53.46
48517;BME280;34310;51.904;4.256;2023-08-24T06:41:55;101563.03;;;25.09;53.52
48517;BME280;34310;51.904;4.256;2023-08-24T06:44:21;101558.59;;;25.08;53.37
48517;BME280;34310;51.904;4.256;2023-08-24T06:46:48;101536.31;;;24.97;53.19
48517;BME280;34310;51.904;4.256;2023-08-24T06:49:14;101541.84;;;25.08;53.32
48517;BME280;34310;51.904;4.256;2023-08-24T06:51:41;101550.69;;;25.08;53.25
48517;BME280;34310;51.904;4.256;2023-08-24T06:54:07;101540.03;;;25.05;53.42
48517;BME280;34310;51.904;4.256;2023-08-24T06:56:34;101530.09;;;24.95;53.34
48517;BME280;34310;51.904;4.256;2023-08-24T06:59:00;101561.25;;;25.08;53.40
48517;BME280;34310;51.904;4.256;2023-08-24T07:01:27;101530.97;;;24.95;53.39
48517;BME280;34310;51.904;4.256;2023-08-24T07:03:53;101556.81;;;25.07;53.29
48517;BME280;34310;51.904;4.256;2023-08-24T07:06:20;101548.00;;;25.07;53.48
48517;BME280;34310;51.904;4.256;2023-08-24T07:08:46;101543.47;;;25.01;53.28
48517;BME280;34310;51.904;4.256;2023-08-24T07:11:13;101547.97;;;25.05;53.39
48517;BME280;34310;51.904;4.256;2023-08-24T07:13:39;101545.31;;;25.05;53.58
48517;BME280;34310;51.904;4.256;2023-08-24T07:16:06;101524.06;;;24.99;53.37
48517;BME280;34310;51.904;4.256;2023-08-24T07:18:32;101531.16;;;25.01;53.05
48517;BME280;34310;51.904;4.256;2023-08-24T07:20:59;101536.47;;;25.03;53.44
48517;BME280;34310;51.904;4.256;2023-08-24T07:23:25;101544.38;;;25.01;53.41
48517;BME280;34310;51.904;4.256;2023-08-24T07:25:52;101532.91;;;25.01;53.14
48517;BME280;34310;51.904;4.256;2023-08-24T07:28:18;101524.88;;;24.98;53.19
48517;BME280;34310;51.904;4.256;2023-08-24T07:30:45;101519.72;;;25.02;53.18
48517;BME280;34310;51.904;4.256;2023-08-24T07:33:11;101525.00;;;25.02;53.17
48517;BME280;34310;51.904;4.256;2023-08-24T07:35:38;101500.94;;;24.90;53.37
48517;BME280;34310;51.904;4.256;2023-08-24T07:38:04;101526.75;;;25.02;53.11
48517;BME280;34310;51.904;4.256;2023-08-24T07:40:31;101527.63;;;25.01;53.00
48517;BME280;34310;51.904;4.256;2023-08-24T07:42:57;101528.50;;;25.01;52.99
48517;BME280;34310;51.904;4.256;2023-08-24T07:45:24;101538.19;;;25.01;53.02
48517;BME280;34310;51.904;4.256;2023-08-24T07:47:51;101545.25;;;25.02;53.15
48517;BME280;34310;51.904;4.256;2023-08-24T07:50:18;101538.16;;;24.99;52.91
48517;BME280;34310;51.904;4.256;2023-08-24T07:52:44;101516.88;;;24.95;52.96
48517;BME280;34310;51.904;4.256;2023-08-24T07:55:11;101519.59;;;24.98;52.96
48517;BME280;34310;51.904;4.256;2023-08-24T07:57:37;101512.50;;;24.95;53.15
48517;BME280;34310;51.904;4.256;2023-08-24T08:00:05;101514.38;;;24.99;53.13
48517;BME280;34310;51.904;4.256;2023-08-24T08:02:35;101497.53;;;24.96;53.13
48517;BME280;34310;51.904;4.256;2023-08-24T08:05:02;101506.47;;;25.01;53.28
48517;BME280;34310;51.904;4.256;2023-08-24T08:07:28;101509.97;;;25.00;53.05
48517;BME280;34310;51.904;4.256;2023-08-24T08:09:55;101509.13;;;25.01;53.22
48517;BME280;34310;51.904;4.256;2023-08-24T08:12:21;101495.91;;;25.01;53.01
48517;BME280;34310;51.904;4.256;2023-08-24T08:14:48;101496.81;;;25.01;52.96
48517;BME280;34310;51.904;4.256;2023-08-24T08:17:14;101489.78;;;25.02;53.13
48517;BME280;34310;51.904;4.256;2023-08-24T08:19:41;101488.84;;;25.00;52.99
48517;BME280;34310;51.904;4.256;2023-08-24T08:22:07;101495.03;;;25.00;53.09
48517;BME280;34310;51.904;4.256;2023-08-24T08:24:36;101475.53;;;24.97;53.17
48517;BME280;34310;51.904;4.256;2023-08-24T08:27:02;101482.75;;;25.02;53.13
48517;BME280;34310;51.904;4.256;2023-08-24T08:29:29;101477.41;;;25.01;53.11
48517;BME280;34310;51.904;4.256;2023-08-24T08:31:55;101467.78;;;25.03;53.04
48517;BME280;34310;51.904;4.256;2023-08-24T08:34:22;101465.13;;;25.03;53.16
48517;BME280;34310;51.904;4.256;2023-08-24T08:36:49;101469.56;;;25.04;53.46
48517;BME280;34310;51.904;4.256;2023-08-24T08:39:15;101459.97;;;25.09;53.54
48517;BME280;34310;51.904;4.256;2023-08-24T08:41:42;101453.91;;;25.13;53.41
48517;BME280;34310;51.904;4.256;2023-08-24T08:44:13;101456.66;;;25.18;53.38
48517;BME280;34310;51.904;4.256;2023-08-24T08:46:41;101450.50;;;25.19;53.53
48517;BME280;34310;51.904;4.256;2023-08-24T08:49:08;101445.25;;;25.20;53.56
48517;BME280;34310;51.904;4.256;2023-08-24T08:51:38;101438.22;;;25.21;53.49
48517;BME280;34310;51.904;4.256;2023-08-24T08:54:05;101441.00;;;25.28;53.71
48517;BME280;34310;51.904;4.256;2023-08-24T08:56:32;101441.94;;;25.30;53.46
48517;BME280;34310;51.904;4.256;2023-08-24T08:59:00;101422.50;;;25.28;53.40
48517;BME280;34310;51.904;4.256;2023-08-24T09:01:28;101428.78;;;25.33;53.35
48517;BME280;34310;51.904;4.256;2023-08-24T09:03:56;101428.81;;;25.35;53.55
48517;BME280;34310;51.904;4.256;2023-08-24T09:06:23;101430.66;;;25.39;53.80
48517;BME280;34310;51.904;4.256;2023-08-24T09:08:50;101436.88;;;25.43;53.61
48517;BME280;34310;51.904;4.256;2023-08-24T09:11:17;101447.53;;;25.46;53.56
48517;BME280;34310;51.904;4.256;2023-08-24T09:13:44;101444.00;;;25.45;53.49
48517;BME280;34310;51.904;4.256;2023-08-24T09:16:11;101456.44;;;25.51;53.43
48517;BME280;34310;51.904;4.256;2023-08-24T09:18:39;101452.94;;;25.52;53.50
48517;BME280;34310;51.904;4.256;2023-08-24T09:21:10;101450.34;;;25.53;53.33
48517;BME280;34310;51.904;4.256;2023-08-24T09:23:38;101446.81;;;25.54;53.27
48517;BME280;34310;51.904;4.256;2023-08-24T09:26:09;101439.69;;;25.50;53.16
48517;BME280;34310;51.904;4.256;2023-08-24T09:28:35;101455.72;;;25.59;53.22
48517;BME280;34310;51.904;4.256;2023-08-24T09:31:02;101452.22;;;25.60;53.26
48517;BME280;34310;51.904;4.256;2023-08-24T09:33:29;101461.06;;;25.62;53.08
48517;BME280;34310;51.904;4.256;2023-08-24T09:35:56;101461.03;;;25.61;53.23
48517;BME280;34310;51.904;4.256;2023-08-24T09:38:23;101469.03;;;25.64;52.87
48517;BME280;34310;51.904;4.256;2023-08-24T09:40:51;101470.72;;;25.60;53.10
48517;BME280;34310;51.904;4.256;2023-08-24T09:43:18;101487.56;;;25.66;52.73
48517;BME280;34310;51.904;4.256;2023-08-24T09:45:52;101474.28;;;25.62;52.72
48517;BME280;34310;51.904;4.256;2023-08-24T09:48:19;101486.69;;;25.65;52.87
48517;BME280;34310;51.904;4.256;2023-08-24T09:50:48;101491.13;;;25.66;52.85
48517;BME280;34310;51.904;4.256;2023-08-24T09:53:19;101495.59;;;25.69;52.69
48517;BME280;34310;51.904;4.256;2023-08-24T09:55:59;101491.91;;;25.62;52.80
48517;BME280;34310;51.904;4.256;2023-08-24T09:58:27;101492.84;;;25.64;52.81
48517;BME280;34310;51.904;4.256;2023-08-24T10:00:55;101487.50;;;25.61;53.13
48517;BME280;34310;51.904;4.256;2023-08-24T10:03:26;101506.09;;;25.66;53.55
48517;BME280;34310;51.904;4.256;2023-08-24T10:05:56;101493.81;;;25.68;53.37
48517;BME280;34310;51.904;4.256;2023-08-24T10:08:35;101480.63;;;25.69;53.03
48517;BME280;34310;51.904;4.256;2023-08-24T10:11:03;101474.34;;;25.66;53.04
48517;BME280;34310;51.904;4.256;2023-08-24T10:13:50;101464.75;;;25.69;53.15
48517;BME280;34310;51.904;4.256;2023-08-24T10:16:19;101468.31;;;25.71;53.36
48517;BME280;34310;51.904;4.256;2023-08-24T10:18:47;101459.53;;;25.72;53.29
48517;BME280;34310;51.904;4.256;2023-08-24T10:21:14;101446.25;;;25.69;53.31
48517;BME280;34310;51.904;4.256;2023-08-24T10:23:43;101441.88;;;25.71;53.44
48517;BME280;34310;51.904;4.256;2023-08-24T10:26:10;101434.03;;;25.74;53.11
48517;BME280;34310;51.904;4.256;2023-08-24T10:28:37;101434.03;;;25.76;53.19
48517;BME280;34310;51.904;4.256;2023-08-24T10:31:05;101420.81;;;25.76;53.31
48517;BME280;34310;51.904;4.256;2023-08-24T10:33:33;101408.31;;;25.69;53.63
48517;BME280;34310;51.904;4.256;2023-08-24T10:36:00;101415.59;;;25.79;53.54
48517;BME280;34310;51.904;4.256;2023-08-24T10:38:27;101389.88;;;25.73;53.62
48517;BME280;34310;51.904;4.256;2023-08-24T10:41:01;101406.75;;;25.78;54.27
48517;BME280;34310;51.904;4.256;2023-08-24T10:43:28;101410.28;;;25.79;54.76
48517;BME280;34310;51.904;4.256;2023-08-24T10:46:01;101401.44;;;25.77;53.80
48517;BME280;34310;51.904;4.256;2023-08-24T10:48:56;101420.13;;;25.86;53.95
48517;BME280;34310;51.904;4.256;2023-08-24T10:53:47;101416.63;;;25.88;53.78
48517;BME280;34310;51.904;4.256;2023-08-24T10:56:15;101419.28;;;25.90;53.49
48517;BME280;34310;51.904;4.256;2023-08-24T10:58:44;101424.63;;;25.91;53.58
48517;BME280;34310;51.904;4.256;2023-08-24T11:01:20;101416.66;;;25.90;53.17
48517;BME280;34310;51.904;4.256;2023-08-24T11:03:51;101413.16;;;25.92;53.17
48517;BME280;34310;51.904;4.256;2023-08-24T11:06:22;101400.84;;;25.94;53.41
48517;BME280;34310;51.904;4.256;2023-08-24T11:09:04;101382.34;;;25.94;53.53
48517;BME280;34310;51.904;4.256;2023-08-24T11:11:31;101372.63;;;25.95;53.53
48517;BME280;34310;51.904;4.256;2023-08-24T11:14:16;101361.19;;;25.96;53.54
48517;BME280;34310;51.904;4.256;2023-08-24T11:16:45;101352.38;;;25.97;53.82
48517;BME280;34310;51.904;4.256;2023-08-24T11:19:13;101355.06;;;25.99;53.89
48517;BME280;34310;51.904;4.256;2023-08-24T11:21:40;101358.53;;;25.96;53.81
48517;BME280;34310;51.904;4.256;2023-08-24T11:24:09;101363.03;;;26.02;53.99
48517;BME280;34310;51.904;4.256;2023-08-24T11:26:40;101341.03;;;26.03;54.05
48517;BME280;34310;51.904;4.256;2023-08-24T11:29:06;101326.94;;;26.04;53.76
48517;BME280;34310;51.904;4.256;2023-08-24T11:31:33;101325.16;;;26.03;53.59
48517;BME280;34310;51.904;4.256;2023-08-24T11:34:00;101329.63;;;26.07;53.41
48517;BME280;34310;51.904;4.256;2023-08-24T11:36:27;101334.06;;;26.08;53.67
48517;BME280;34310;51.904;4.256;2023-08-24T11:38:56;101332.28;;;26.08;53.53
48517;BME280;34310;51.904;4.256;2023-08-24T11:41:23;101327.88;;;26.07;53.62
48517;BME280;34310;51.904;4.256;2023-08-24T11:43:59;101322.53;;;26.04;53.53
48517;BME280;34310;51.904;4.256;2023-08-24T11:46:29;101304.00;;;26.03;53.77
48517;BME280;34310;51.904;4.256;2023-08-24T11:48:57;101302.28;;;26.08;53.81
48517;BME280;34310;51.904;4.256;2023-08-24T11:51:24;101299.63;;;26.06;53.65
48517;BME280;34310;51.904;4.256;2023-08-24T11:54:08;101293.47;;;26.07;53.41
48517;BME280;34310;51.904;4.256;2023-08-24T11:56:43;101274.06;;;26.08;53.38
48517;BME280;34310;51.904;4.256;2023-08-24T11:59:12;101275.84;;;26.09;53.47
48517;BME280;34310;51.904;4.256;2023-08-24T12:01:40;101287.34;;;26.11;53.69
48517;BME280;34310;51.904;4.256;2023-08-24T12:04:08;101281.19;;;26.12;54.77
48517;BME280;34310;51.904;4.256;2023-08-24T12:06:34;101292.72;;;26.17;54.40
48517;BME280;34310;51.904;4.256;2023-08-24T12:09:04;101283.91;;;26.17;54.46
48517;BME280;34310;51.904;4.256;2023-08-24T12:11:37;101279.50;;;26.17;54.46
48517;BME280;34310;51.904;4.256;2023-08-24T12:14:06;101269.78;;;26.18;54.40
48517;BME280;34310;51.904;4.256;2023-08-24T12:16:32;101275.13;;;26.21;54.41
48517;BME280;34310;51.904;4.256;2023-08-24T12:19:00;101277.78;;;26.21;54.53
48517;BME280;34310;51.904;4.256;2023-08-24T12:21:27;101298.97;;;26.24;54.58
48517;BME280;34310;51.904;4.256;2023-08-24T12:24:01;101291.97;;;26.28;54.33
48517;BME280;34310;51.904;4.256;2023-08-24T12:26:28;101294.63;;;26.28;54.57
48517;BME280;34310;51.904;4.256;2023-08-24T12:28:59;101300.81;;;26.30;54.40
48517;BME280;34310;51.904;4.256;2023-08-24T12:31:26;101300.78;;;26.27;54.49
48517;BME280;34310;51.904;4.256;2023-08-24T12:34:07;101308.03;;;26.35;54.51
48517;BME280;34310;51.904;4.256;2023-08-24T12:36:36;101298.34;;;26.37;54.40
48517;BME280;34310;51.904;4.256;2023-08-24T12:39:04;101289.53;;;26.38;54.54
48517;BME280;34310;51.904;4.256;2023-08-24T12:41:31;101289.56;;;26.41;54.58
48517;BME280;34310;51.904;4.256;2023-08-24T12:43:58;101282.53;;;26.43;54.54
48517;BME280;34310;51.904;4.256;2023-08-24T12:46:24;101290.50;;;26.46;54.44
48517;BME280;34310;51.904;4.256;2023-08-24T12:48:51;101288.69;;;26.42;54.40
48517;BME280;34310;51.904;4.256;2023-08-24T12:51:22;101294.09;;;26.50;54.16
48517;BME280;34310;51.904;4.256;2023-08-24T12:53:48;101276.44;;;26.52;54.42
48517;BME280;34310;51.904;4.256;2023-08-24T12:56:15;101257.81;;;26.43;54.31
48517;BME280;34310;51.904;4.256;2023-08-24T12:58:41;101279.16;;;26.57;54.16